createdAt,value
2022-12-03T00:01:47.220Z,7.82
2022-12-03T00:04:15.835Z,7.72
2022-12-03T00:06:44.355Z,7.25
2022-12-03T00:09:12.868Z,6.63
2022-12-03T00:11:41.684Z,8.85
2022-12-03T00:14:11.291Z,7.32
2022-12-03T00:16:39.842Z,7.78
2022-12-03T00:19:08.300Z,7.68
2022-12-03T00:21:36.887Z,8.15
2022-12-03T00:24:05.508Z,7.57
2022-12-03T00:26:34.095Z,7.43
2022-12-03T00:29:02.594Z,8.07
2022-12-03T00:31:32.244Z,9.15
2022-12-03T00:34:00.565Z,7.90
2022-12-03T00:36:29.085Z,7.07
2022-12-03T00:38:57.568Z,7.70
2022-12-03T00:41:26.079Z,7.85
2022-12-03T00:43:57.469Z,8.23
2022-12-03T00:46:26.375Z,9.70
2022-12-03T00:48:56.311Z,7.95
2022-12-03T00:51:24.616Z,6.78
2022-12-03T00:53:53.182Z,7.85
2022-12-03T00:56:21.708Z,8.90
2022-12-03T00:58:51.619Z,7.90
2022-12-03T01:01:20.311Z,8.30
2022-12-03T01:03:48.843Z,7.40
2022-12-03T01:06:18.733Z,9.05
2022-12-03T01:08:47.288Z,8.93
2022-12-03T01:11:29.705Z,8.45
2022-12-03T01:13:58.358Z,9.50
2022-12-03T01:16:26.895Z,8.40
2022-12-03T01:18:55.457Z,8.77
2022-12-03T01:21:25.096Z,8.77
2022-12-03T01:23:53.710Z,9.23
2022-12-03T01:26:22.411Z,9.10
2022-12-03T01:28:50.991Z,8.15
2022-12-03T01:31:37.095Z,9.48
2022-12-03T01:34:05.819Z,9.88
2022-12-03T01:36:35.422Z,10.23
2022-12-03T01:39:04.848Z,10.15
2022-12-03T01:41:34.526Z,10.00
2022-12-03T01:44:04.081Z,11.75
2022-12-03T01:46:39.663Z,9.43
2022-12-03T01:49:14.835Z,11.00
2022-12-03T01:51:44.692Z,12.45
2022-12-03T01:54:19.154Z,10.77
2022-12-03T01:56:48.396Z,10.48
2022-12-03T01:59:20.052Z,9.43
2022-12-03T02:01:48.681Z,10.52
2022-12-03T02:04:20.688Z,12.10
2022-12-03T02:06:50.451Z,10.50
2022-12-03T02:09:19.911Z,11.63
2022-12-03T02:11:51.532Z,10.10
2022-12-03T02:14:22.676Z,10.60
2022-12-03T02:16:51.015Z,10.55
2022-12-03T02:19:27.634Z,11.38
2022-12-03T02:22:06.619Z,9.95
2022-12-03T02:24:44.690Z,10.45
2022-12-03T02:27:14.362Z,11.13
2022-12-03T02:29:42.599Z,11.43
2022-12-03T02:32:11.075Z,10.27
2022-12-03T02:34:42.867Z,12.18
2022-12-03T02:37:16.276Z,11.07
2022-12-03T02:39:51.277Z,10.60
2022-12-03T02:42:37.134Z,11.10
2022-12-03T02:45:11.895Z,9.88
2022-12-03T02:47:43.983Z,11.13
2022-12-03T02:50:16.102Z,10.68
2022-12-03T02:52:47.462Z,9.80
2022-12-03T02:55:18.188Z,11.93
2022-12-03T02:57:51.201Z,10.05
2022-12-03T03:00:20.863Z,11.18
2022-12-03T03:02:50.606Z,11.35
2022-12-03T03:05:22.987Z,12.00
2022-12-03T03:07:52.702Z,11.30
2022-12-03T03:10:24.279Z,11.10
2022-12-03T03:12:56.468Z,12.20
2022-12-03T03:15:25.457Z,12.68
2022-12-03T03:17:54.091Z,12.52
2022-12-03T03:20:22.684Z,12.52
2022-12-03T03:22:51.210Z,13.38
2022-12-03T03:25:22.423Z,12.30
2022-12-03T03:27:51.195Z,12.45
2022-12-03T03:30:20.924Z,11.40
2022-12-03T03:32:49.521Z,11.77
2022-12-03T03:35:18.090Z,13.43
2022-12-03T03:37:46.825Z,12.13
2022-12-03T03:40:15.489Z,14.43
2022-12-03T03:42:44.342Z,12.63
2022-12-03T03:45:12.807Z,12.48
2022-12-03T03:47:43.538Z,12.38
2022-12-03T03:50:13.877Z,11.50
2022-12-03T03:52:43.082Z,11.88
2022-12-03T03:55:12.675Z,13.70
2022-12-03T03:57:41.433Z,12.82
2022-12-03T04:00:11.330Z,13.38
2022-12-03T04:02:39.911Z,11.05
2022-12-03T04:05:16.903Z,11.02
2022-12-03T04:07:45.395Z,11.60
2022-12-03T04:10:33.291Z,11.73
2022-12-03T04:13:02.077Z,12.75
2022-12-03T04:15:30.735Z,11.82
2022-12-03T04:18:16.945Z,13.60
2022-12-03T04:20:46.576Z,12.35
2022-12-03T04:23:14.166Z,11.25
2022-12-03T04:26:02.367Z,11.40
2022-12-03T04:28:48.814Z,11.18
2022-12-03T04:31:31.263Z,12.15
2022-12-03T04:34:17.438Z,11.82
2022-12-03T04:36:47.692Z,13.23
2022-12-03T04:39:16.229Z,12.43
2022-12-03T04:41:44.747Z,10.82
2022-12-03T04:44:30.545Z,11.52
2022-12-03T04:46:58.850Z,11.15
2022-12-03T04:49:27.461Z,12.40
2022-12-03T04:51:57.279Z,10.82
2022-12-03T04:54:25.838Z,13.65
2022-12-03T04:56:54.358Z,11.85
2022-12-03T04:59:23.018Z,12.70
2022-12-03T05:01:51.721Z,10.90
2022-12-03T05:04:20.345Z,12.38
2022-12-03T05:06:48.735Z,12.18
2022-12-03T05:09:18.310Z,12.32
2022-12-03T05:11:47.162Z,12.18
2022-12-03T05:14:15.675Z,11.85
2022-12-03T05:16:44.190Z,12.10
2022-12-03T05:19:12.703Z,14.23
2022-12-03T05:21:40.314Z,12.63
2022-12-03T05:24:09.226Z,11.35
2022-12-03T05:26:38.846Z,11.88
2022-12-03T05:29:07.370Z,14.00
2022-12-03T05:31:36.826Z,12.63
2022-12-03T05:34:05.914Z,10.98
2022-12-03T05:36:34.457Z,12.50
2022-12-03T05:39:02.955Z,12.98
2022-12-03T05:41:48.857Z,11.00
2022-12-03T05:44:20.703Z,13.25
2022-12-03T05:46:49.493Z,12.18
2022-12-03T05:49:17.972Z,12.40
2022-12-03T05:51:46.507Z,13.48
2022-12-03T05:54:15.015Z,12.43
2022-12-03T05:56:58.761Z,12.90
2022-12-03T05:59:28.474Z,13.63
2022-12-03T06:01:57.009Z,11.45
2022-12-03T06:04:25.587Z,12.40
2022-12-03T06:06:53.836Z,13.95
2022-12-03T06:09:22.383Z,13.68
2022-12-03T06:11:54.000Z,13.07
2022-12-03T06:14:22.398Z,14.35
2022-12-03T06:16:52.003Z,13.10
2022-12-03T06:19:20.535Z,14.57
2022-12-03T06:21:49.014Z,13.85
2022-12-03T06:24:17.573Z,12.57
2022-12-03T06:26:46.191Z,14.85
2022-12-03T06:29:14.424Z,13.07
2022-12-03T06:31:43.032Z,12.90
2022-12-03T06:34:12.760Z,15.20
2022-12-03T06:36:41.225Z,14.35
2022-12-03T06:39:09.822Z,12.43
2022-12-03T06:41:38.372Z,11.40
2022-12-03T06:44:07.152Z,15.48
2022-12-03T06:46:36.149Z,12.95
2022-12-03T06:49:04.846Z,12.77
2022-12-03T06:51:34.431Z,11.90
2022-12-03T06:54:03.470Z,11.93
2022-12-03T06:56:36.831Z,12.55
2022-12-03T07:01:34.736Z,11.07
2022-12-03T07:04:03.448Z,13.55
2022-12-03T07:06:31.655Z,12.07
2022-12-03T07:09:01.310Z,12.27
2022-12-03T07:11:32.922Z,10.15
2022-12-03T07:14:05.660Z,12.00
2022-12-03T07:16:34.947Z,12.55
2022-12-03T07:19:03.872Z,12.40
2022-12-03T07:21:32.457Z,10.13
2022-12-03T07:24:02.218Z,12.07
2022-12-03T07:26:30.944Z,11.45
2022-12-03T07:29:00.035Z,11.35
2022-12-03T07:31:28.778Z,10.85
2022-12-03T07:33:57.587Z,10.15
2022-12-03T07:36:26.089Z,10.95
2022-12-03T07:38:54.603Z,11.32
2022-12-03T07:41:24.487Z,12.45
2022-12-03T07:43:53.651Z,11.05
2022-12-03T07:46:22.353Z,11.55
2022-12-03T07:48:51.360Z,10.25
2022-12-03T07:51:19.915Z,11.23
2022-12-03T07:53:48.108Z,10.43
2022-12-03T07:56:16.639Z,11.45
2022-12-03T07:58:46.214Z,9.60
2022-12-03T08:01:14.755Z,10.60
2022-12-03T08:03:43.875Z,11.35
2022-12-03T08:06:12.538Z,9.45
2022-12-03T08:08:41.195Z,10.02
2022-12-03T08:11:14.720Z,11.90
2022-12-03T08:13:43.325Z,11.38
2022-12-03T08:16:18.533Z,12.38
2022-12-03T08:18:48.343Z,10.65
2022-12-03T08:21:19.496Z,11.77
2022-12-03T08:23:48.240Z,14.98
2022-12-03T08:26:23.573Z,12.80
2022-12-03T08:28:52.399Z,11.20
2022-12-03T08:31:32.372Z,9.35
2022-12-03T08:34:17.694Z,10.52
2022-12-03T08:36:46.772Z,12.45
2022-12-03T08:39:30.577Z,11.00
2022-12-03T08:42:28.208Z,10.27
2022-12-03T08:44:56.818Z,11.73
2022-12-03T08:47:26.824Z,10.80
2022-12-03T08:49:59.862Z,10.82
2022-12-03T08:52:33.626Z,10.68
2022-12-03T08:55:21.213Z,11.10
2022-12-03T08:57:49.562Z,10.80
2022-12-03T09:00:23.992Z,12.27
2022-12-03T09:03:00.501Z,11.45
2022-12-03T09:05:32.617Z,11.43
2022-12-03T09:08:01.695Z,11.68
2022-12-03T09:10:30.399Z,11.00
2022-12-03T09:12:59.065Z,11.75
2022-12-03T09:15:28.302Z,9.30
2022-12-03T09:17:57.959Z,11.73
2022-12-03T09:20:26.491Z,11.82
2022-12-03T09:22:55.056Z,10.32
2022-12-03T09:25:23.641Z,12.50
2022-12-03T09:27:52.200Z,11.98
2022-12-03T09:30:20.800Z,10.27
2022-12-03T09:32:49.425Z,11.93
2022-12-03T09:35:19.284Z,10.80
2022-12-03T09:37:47.855Z,11.30
2022-12-03T09:40:16.731Z,11.88
2022-12-03T09:42:45.801Z,10.23
2022-12-03T09:45:16.252Z,10.20
2022-12-03T09:47:48.682Z,12.40
2022-12-03T09:50:23.671Z,10.32
2022-12-03T09:52:54.838Z,12.38
2022-12-03T09:55:26.875Z,10.27
2022-12-03T09:57:56.792Z,11.05
2022-12-03T10:00:28.212Z,11.27
2022-12-03T10:03:02.433Z,9.10
2022-12-03T10:05:33.160Z,10.52
2022-12-03T10:08:07.824Z,10.85
2022-12-03T10:13:05.776Z,12.10
2022-12-03T10:15:34.740Z,11.75
2022-12-03T10:18:16.812Z,10.80
2022-12-03T10:20:47.004Z,11.85
2022-12-03T10:23:23.191Z,10.30
2022-12-03T10:25:56.914Z,12.00
2022-12-03T10:28:32.668Z,10.77
2022-12-03T10:31:03.106Z,11.48
2022-12-03T10:33:36.855Z,10.90
2022-12-03T10:36:23.258Z,11.17
2022-12-03T10:39:10.459Z,12.20
2022-12-03T10:41:39.621Z,12.15
2022-12-03T10:44:19.256Z,12.90
2022-12-03T10:47:07.553Z,11.10
2022-12-03T10:49:36.307Z,12.10
2022-12-03T10:52:07.270Z,13.43
2022-12-03T10:54:36.775Z,12.52
2022-12-03T10:57:05.437Z,11.93
2022-12-03T10:59:35.952Z,12.95
2022-12-03T11:02:08.959Z,14.07
2022-12-03T11:04:38.048Z,11.98
2022-12-03T11:07:16.057Z,13.52
2022-12-03T11:09:46.989Z,14.70
2022-12-03T11:12:21.963Z,13.57
2022-12-03T11:15:08.187Z,14.73
2022-12-03T11:17:49.874Z,12.68
2022-12-03T11:21:08.175Z,13.05
2022-12-03T11:24:21.774Z,14.52
2022-12-03T11:27:22.915Z,13.23
2022-12-03T11:29:58.562Z,15.65
2022-12-03T11:33:21.591Z,13.38
2022-12-03T11:36:31.619Z,13.33
2022-12-03T11:39:05.327Z,13.38
2022-12-03T11:41:36.374Z,13.80
2022-12-03T11:44:33.651Z,11.32
2022-12-03T11:47:14.892Z,12.10
2022-12-03T11:49:49.014Z,11.48
2022-12-03T11:52:29.441Z,12.75
2022-12-03T11:55:14.248Z,12.77
2022-12-03T11:57:44.328Z,11.55
2022-12-03T12:00:21.773Z,13.40
2022-12-03T12:02:51.218Z,14.27
2022-12-03T12:05:29.852Z,12.57
2022-12-03T12:07:58.688Z,13.00
2022-12-03T12:10:42.052Z,11.75
2022-12-03T12:13:56.695Z,12.93
2022-12-03T12:16:50.503Z,12.52
2022-12-03T12:19:39.826Z,12.60
2022-12-03T12:22:31.199Z,13.80
2022-12-03T12:25:01.333Z,12.05
2022-12-03T12:27:37.411Z,12.40
2022-12-03T12:30:13.731Z,13.95
2022-12-03T12:32:47.772Z,13.75
2022-12-03T12:35:20.850Z,14.50
2022-12-03T12:37:58.912Z,11.73
2022-12-03T12:40:30.906Z,12.18
2022-12-03T12:43:06.833Z,13.57
2022-12-03T12:45:43.552Z,14.25
2022-12-03T12:48:22.066Z,12.45
2022-12-03T12:51:00.536Z,15.40
2022-12-03T12:53:32.568Z,13.85
2022-12-03T12:56:02.955Z,12.43
2022-12-03T12:58:34.150Z,14.98
2022-12-03T13:01:12.077Z,14.73
2022-12-03T13:03:41.183Z,14.35
2022-12-03T13:06:15.463Z,14.02
2022-12-03T13:08:48.155Z,15.85
2022-12-03T13:11:35.309Z,14.98
2022-12-03T13:14:13.613Z,13.07
2022-12-03T13:16:43.479Z,13.85
2022-12-03T13:19:23.532Z,13.98
2022-12-03T13:21:53.493Z,16.27
2022-12-03T13:24:35.101Z,15.05
2022-12-03T13:27:22.869Z,15.48
2022-12-03T13:29:56.263Z,13.98
2022-12-03T13:32:32.466Z,14.35
2022-12-03T13:35:05.707Z,13.70
2022-12-03T13:37:34.583Z,13.93
2022-12-03T13:40:27.895Z,12.50
2022-12-03T13:42:55.272Z,12.85
2022-12-03T13:45:36.059Z,14.75
2022-12-03T13:48:19.714Z,14.15
2022-12-03T13:50:48.299Z,14.25
2022-12-03T13:53:22.882Z,15.60
2022-12-03T13:58:21.395Z,12.60
2022-12-03T14:00:50.037Z,14.30
2022-12-03T14:03:19.871Z,13.00
2022-12-03T14:05:48.436Z,14.07
2022-12-03T14:08:17.137Z,13.55
2022-12-03T14:10:45.471Z,15.02
2022-12-03T14:13:13.957Z,15.68
2022-12-03T14:15:42.217Z,14.80
2022-12-03T14:18:11.651Z,16.88
2022-12-03T14:20:41.221Z,16.13
2022-12-03T14:23:09.719Z,14.73
2022-12-03T14:25:38.228Z,14.57
2022-12-03T14:28:08.588Z,14.13
2022-12-03T14:30:37.139Z,16.13
2022-12-03T14:33:05.723Z,15.90
2022-12-03T14:35:34.292Z,15.48
2022-12-03T14:38:03.896Z,15.40
2022-12-03T14:40:32.562Z,14.15
2022-12-03T14:43:01.043Z,14.68
2022-12-03T14:45:29.989Z,15.55
2022-12-03T14:47:58.666Z,14.75
2022-12-03T14:50:27.425Z,14.95
2022-12-03T14:52:56.048Z,15.55
2022-12-03T14:55:25.833Z,16.98
2022-12-03T14:57:54.414Z,17.00
2022-12-03T15:00:23.746Z,19.52
2022-12-03T15:02:52.333Z,18.58
2022-12-03T15:05:27.937Z,15.88
2022-12-03T15:07:57.436Z,15.38
2022-12-03T15:10:27.015Z,16.30
2022-12-03T15:12:55.543Z,15.27
2022-12-03T15:15:24.050Z,14.45
2022-12-03T15:17:52.547Z,15.30
2022-12-03T15:20:21.024Z,14.20
2022-12-03T15:22:49.549Z,14.98
2022-12-03T15:25:24.232Z,12.93
2022-12-03T15:27:53.939Z,14.25
2022-12-03T15:30:22.422Z,15.52
2022-12-03T15:32:50.950Z,14.18
2022-12-03T15:35:19.466Z,14.48
2022-12-03T15:37:48.050Z,15.55
2022-12-03T15:40:16.800Z,13.95
2022-12-03T15:42:45.347Z,12.68
2022-12-03T15:45:15.505Z,13.48
2022-12-03T15:47:44.440Z,14.32
2022-12-03T15:50:14.139Z,14.10
2022-12-03T15:52:42.719Z,14.30
2022-12-03T15:55:11.396Z,13.40
2022-12-03T15:57:40.215Z,14.70
2022-12-03T16:00:12.040Z,15.00
2022-12-03T16:02:52.198Z,16.15
2022-12-03T16:05:21.275Z,14.82
2022-12-03T16:07:50.069Z,15.45
2022-12-03T16:10:21.341Z,14.77
2022-12-03T16:12:50.182Z,15.23
2022-12-03T16:15:22.230Z,13.90
2022-12-03T16:17:56.286Z,15.18
2022-12-03T16:20:24.541Z,13.48
2022-12-03T16:22:53.187Z,14.75
2022-12-03T16:25:21.856Z,15.20
2022-12-03T16:27:50.129Z,13.80
2022-12-03T16:30:18.988Z,13.85
2022-12-03T16:32:47.501Z,14.10
2022-12-03T16:35:17.391Z,14.95
2022-12-03T16:37:45.863Z,16.98
2022-12-03T16:40:14.507Z,15.75
2022-12-03T16:42:43.010Z,14.23
2022-12-03T16:45:33.837Z,13.98
2022-12-03T16:48:02.920Z,15.35
2022-12-03T16:50:32.679Z,15.65
2022-12-03T16:53:01.242Z,13.77
2022-12-03T16:55:29.714Z,14.93
2022-12-03T16:57:58.294Z,15.35
2022-12-03T17:00:26.735Z,14.13
2022-12-03T17:02:55.438Z,15.38
2022-12-03T17:05:24.101Z,14.63
2022-12-03T17:07:53.892Z,16.65
2022-12-03T17:10:22.509Z,13.65
2022-12-03T17:15:40.202Z,16.35
2022-12-03T17:18:09.396Z,15.20
2022-12-03T17:20:37.964Z,13.32
2022-12-03T17:23:07.609Z,13.55
2022-12-03T17:25:35.964Z,14.50
2022-12-03T17:28:04.649Z,16.23
2022-12-03T17:30:33.193Z,15.70
2022-12-03T17:33:01.677Z,15.18
2022-12-03T17:35:30.488Z,16.13
2022-12-03T17:37:59.004Z,17.45
2022-12-03T17:40:28.602Z,14.50
2022-12-03T17:42:57.063Z,14.90
2022-12-03T17:45:27.732Z,15.23
2022-12-03T17:47:56.241Z,15.35
2022-12-03T17:50:26.599Z,15.50
2022-12-03T17:52:55.096Z,16.20
2022-12-03T17:55:32.081Z,15.73
2022-12-03T17:58:06.092Z,14.40
2022-12-03T18:00:34.994Z,16.17
2022-12-03T18:03:03.293Z,16.27
2022-12-03T18:05:31.954Z,15.93
2022-12-03T18:08:00.503Z,16.50
2022-12-03T18:10:29.071Z,16.48
2022-12-03T18:13:01.621Z,16.50
2022-12-03T18:15:33.093Z,16.30
2022-12-03T18:18:02.462Z,16.00
2022-12-03T18:20:31.131Z,15.02
2022-12-03T18:23:00.426Z,15.48
2022-12-03T18:25:29.347Z,17.77
2022-12-03T18:27:57.759Z,14.57
2022-12-03T18:30:26.343Z,15.32
2022-12-03T18:32:56.424Z,13.98
2022-12-03T18:35:24.950Z,16.05
2022-12-03T18:37:53.382Z,15.38
2022-12-03T18:40:26.974Z,14.25
2022-12-03T18:42:56.778Z,13.17
2022-12-03T18:45:25.282Z,14.68
2022-12-03T18:47:54.715Z,16.75
2022-12-03T18:50:24.352Z,14.27
2022-12-03T18:52:52.911Z,13.90
2022-12-03T18:55:22.690Z,15.43
2022-12-03T18:57:51.257Z,14.68
2022-12-03T19:00:20.324Z,15.57
2022-12-03T19:03:04.855Z,15.23
2022-12-03T19:05:36.538Z,15.40
2022-12-03T19:08:12.580Z,15.43
2022-12-03T19:10:41.809Z,14.52
2022-12-03T19:13:10.331Z,15.30
2022-12-03T19:15:39.852Z,15.77
2022-12-03T19:18:08.351Z,14.73
2022-12-03T19:20:41.812Z,13.85
2022-12-03T19:23:10.464Z,14.07
2022-12-03T19:25:38.960Z,15.32
2022-12-03T19:28:07.581Z,14.63
2022-12-03T19:30:36.087Z,13.07
2022-12-03T19:33:04.638Z,14.48
2022-12-03T19:35:33.541Z,15.30
2022-12-03T19:38:03.133Z,14.80
2022-12-03T19:40:32.080Z,14.55
2022-12-03T19:43:00.807Z,15.20
2022-12-03T19:45:29.313Z,13.65
2022-12-03T19:47:57.854Z,14.27
2022-12-03T19:50:26.080Z,14.75
2022-12-03T19:52:54.622Z,15.05
2022-12-03T19:55:24.168Z,13.15
2022-12-03T19:57:52.693Z,14.40
2022-12-03T20:00:21.352Z,13.00
2022-12-03T20:02:50.832Z,14.00
2022-12-03T20:05:19.557Z,12.73
2022-12-03T20:07:48.075Z,14.25
2022-12-03T20:10:16.679Z,17.35
2022-12-03T20:12:46.413Z,15.98
2022-12-03T20:15:15.199Z,17.60
2022-12-03T20:17:43.791Z,19.20
2022-12-03T20:20:12.977Z,16.60
2022-12-03T20:22:41.458Z,15.60
2022-12-03T20:25:10.574Z,15.23
2022-12-03T20:27:39.267Z,15.43
2022-12-03T20:30:11.287Z,15.35
2022-12-03T20:32:45.025Z,15.23
2022-12-03T20:35:13.745Z,16.65
2022-12-03T20:37:42.067Z,13.85
2022-12-03T20:40:11.576Z,14.20
2022-12-03T20:42:40.071Z,15.40
2022-12-03T20:45:11.580Z,15.57
2022-12-03T20:47:40.188Z,14.13
2022-12-03T20:50:09.503Z,12.32
2022-12-03T20:52:38.163Z,13.95
2022-12-03T20:55:07.206Z,14.00
2022-12-03T20:57:36.522Z,14.75
2022-12-03T21:00:06.319Z,12.10
2022-12-03T21:02:35.969Z,15.65
2022-12-03T21:05:04.396Z,14.13
2022-12-03T21:07:33.069Z,14.30
2022-12-03T21:10:01.579Z,11.60
2022-12-03T21:12:30.089Z,12.23
2022-12-03T21:14:58.593Z,12.93
2022-12-03T21:17:27.173Z,10.32
2022-12-03T21:19:57.197Z,11.68
2022-12-03T21:22:26.127Z,12.45
2022-12-03T21:24:54.597Z,11.85
2022-12-03T21:27:23.110Z,11.68
2022-12-03T21:29:51.408Z,10.35
2022-12-03T21:32:20.343Z,10.68
2022-12-03T21:34:48.820Z,9.65
2022-12-03T21:37:18.449Z,10.48
2022-12-03T21:39:46.962Z,10.05
2022-12-03T21:42:34.859Z,12.65
2022-12-03T21:45:04.299Z,11.18
2022-12-03T21:47:37.334Z,10.18
2022-12-03T21:50:08.471Z,9.95
2022-12-03T21:52:38.099Z,10.77
2022-12-03T21:55:07.590Z,10.43
2022-12-03T21:57:37.207Z,9.43
2022-12-03T22:00:08.554Z,9.98
2022-12-03T22:02:40.105Z,8.63
2022-12-03T22:05:09.766Z,8.43
2022-12-03T22:07:41.003Z,10.25
2022-12-03T22:10:12.315Z,9.55
2022-12-03T22:12:41.908Z,9.15
2022-12-03T22:15:18.200Z,9.45
2022-12-03T22:17:49.898Z,10.05
2022-12-03T22:20:18.379Z,8.82
2022-12-03T22:22:48.018Z,9.57
2022-12-03T22:25:17.807Z,7.88
2022-12-03T22:27:46.043Z,8.05
2022-12-03T22:30:14.926Z,8.60
2022-12-03T22:32:43.452Z,8.88
2022-12-03T22:35:11.947Z,8.32
2022-12-03T22:37:40.163Z,8.77
2022-12-03T22:40:10.893Z,6.30
2022-12-03T22:42:39.088Z,7.25
2022-12-03T22:45:08.813Z,8.52
2022-12-03T22:47:37.092Z,6.95
2022-12-03T22:50:06.368Z,8.30
2022-12-03T22:52:34.979Z,7.57
2022-12-03T22:55:03.292Z,7.88
2022-12-03T22:57:33.019Z,5.97
2022-12-03T23:00:01.610Z,6.80
2022-12-03T23:02:29.854Z,7.90
2022-12-03T23:04:58.382Z,7.47
2022-12-03T23:07:26.971Z,7.75
2022-12-03T23:09:55.760Z,7.78
2022-12-03T23:12:24.475Z,7.20
2022-12-03T23:14:55.750Z,6.13
2022-12-03T23:17:24.316Z,7.22
2022-12-03T23:19:53.395Z,7.68
2022-12-03T23:22:22.146Z,7.07
2022-12-03T23:24:50.654Z,6.93
2022-12-03T23:27:19.199Z,8.60
2022-12-03T23:29:47.887Z,7.40
2022-12-03T23:32:17.502Z,7.95
2022-12-03T23:34:46.127Z,7.32
2022-12-03T23:37:14.411Z,7.82
2022-12-03T23:39:42.898Z,7.30
2022-12-03T23:42:11.395Z,7.82
2022-12-03T23:44:39.936Z,7.57
2022-12-03T23:47:08.459Z,7.05
2022-12-03T23:49:38.240Z,7.00
2022-12-03T23:52:06.810Z,7.10
2022-12-03T23:54:35.355Z,8.48
2022-12-03T23:57:03.899Z,7.43
2022-12-03T23:59:32.473Z,7.45
